Time;durP1;ratioP1;P1;durP2;ratioP2;P2;SDS_P1;SDS_P2;PMS_P1;PMS_P2;Temp;Humidity;BMP_temperature;BMP_pressure;BME280_temperature;BME280_humidity;BME280_pressure;Samples;Min_cycle;Max_cycle;Signal;HPM_P1;HPM_P2
2023/07/19 00:00:30;;;;;;;9.40;3.00;;;;;;;12.12;85.82;99662.55;109343;1254;67697;-69
2023/07/19 00:03:33;;;;;;;8.90;3.20;;;;;;;12.11;85.94;99658.22;109467;1254;72508;-70
2023/07/19 00:06:20;;;;;;;9.80;3.00;;;;;;;12.10;86.02;99652.73;109393;1260;56924;-69
2023/07/19 00:09:06;;;;;;;10.20;3.10;;;;;;;12.10;86.29;99653.66;109507;1254;58857;-69
2023/07/19 00:11:53;;;;;;;8.90;3.20;;;;;;;12.06;86.42;99653.61;109298;1258;70865;-69
2023/07/19 00:14:39;;;;;;;7.80;2.70;;;;;;;12.05;86.99;99655.02;109245;1254;68811;-69
2023/07/19 00:17:26;;;;;;;7.40;2.80;;;;;;;12.02;87.75;99649.20;109391;1254;73357;-70
2023/07/19 00:20:26;;;;;;;8.70;2.60;;;;;;;12.07;87.70;99645.44;109245;1254;59521;-70
2023/07/19 00:23:13;;;;;;;9.80;2.70;;;;;;;12.11;87.62;99640.10;109464;1254;60202;-69
2023/07/19 00:25:59;;;;;;;9.10;2.70;;;;;;;12.13;87.43;99640.02;109437;1254;72210;-68
2023/07/19 00:28:46;;;;;;;8.40;2.60;;;;;;;12.17;87.26;99633.12;109220;1254;67891;-68
2023/07/19 00:31:33;;;;;;;7.90;2.80;;;;;;;12.20;86.82;99623.71;109388;1254;72576;-69
2023/07/19 00:34:19;;;;;;;8.50;2.70;;;;;;;12.24;86.58;99616.61;109430;1254;57990;-69
2023/07/19 00:37:06;;;;;;;8.20;2.40;;;;;;;12.28;86.45;99616.27;109264;1254;61237;-69
2023/07/19 00:39:53;;;;;;;8.30;2.40;;;;;;;12.33;86.11;99616.41;109416;1253;71292;-68
2023/07/19 00:42:39;;;;;;;8.30;2.80;;;;;;;12.36;85.93;99617.50;109455;1254;67930;-69
2023/07/19 00:45:27;;;;;;;7.70;2.20;;;;;;;12.38;85.61;99616.43;109272;1257;72443;-69
2023/07/19 00:48:16;;;;;;;8.20;2.60;;;;;;;12.40;85.45;99612.36;109250;1254;60787;-71
2023/07/19 00:51:03;;;;;;;7.90;2.50;;;;;;;12.40;85.57;99608.62;109262;1254;58908;-70
2023/07/19 00:53:50;;;;;;;8.50;2.40;;;;;;;12.41;85.63;99608.12;109287;1254;73109;-68
2023/07/19 00:56:37;;;;;;;8.20;2.30;;;;;;;12.45;85.36;99606.54;109426;1254;68974;-69
2023/07/19 00:59:29;;;;;;;6.10;2.20;;;;;;;12.47;85.22;99600.87;109271;1254;73558;-72
2023/07/19 01:02:28;;;;;;;7.00;2.20;;;;;;;12.48;84.99;99592.39;109276;1255;58826;-70
2023/07/19 01:06:04;;;;;;;7.10;2.30;;;;;;;12.48;85.15;99587.10;109433;1254;59097;-71
2023/07/19 01:09:14;;;;;;;;;;;;;;;;;;;;;
2023/07/19 01:12:36;;;;;;;7.50;2.40;;;;;;;12.53;84.85;99572.72;109336;1254;66629;-67
2023/07/19 01:15:44;;;;;;;8.30;2.20;;;;;;;12.56;84.85;99567.09;109261;1254;72654;-68
2023/07/19 01:19:02;;;;;;;6.80;2.10;;;;;;;12.64;84.56;99568.15;109308;1254;56882;-69
2023/07/19 01:22:06;;;;;;;9.70;2.40;;;;;;;12.70;84.24;99568.09;109313;1254;60409;-68
2023/07/19 01:24:52;;;;;;;7.70;2.20;;;;;;;12.74;84.14;99562.03;109413;1254;73118;-67
2023/07/19 01:27:40;;;;;;;6.70;2.10;;;;;;;12.80;83.82;99561.96;109306;1254;66384;-69
2023/07/19 01:30:27;;;;;;;8.50;2.10;;;;;;;12.85;83.46;99559.96;109213;1254;72453;-68
2023/07/19 01:33:13;;;;;;;7.00;2.10;;;;;;;12.89;83.26;99558.28;109451;1254;58988;-68
2023/07/19 01:36:14;;;;;;;8.30;2.40;;;;;;;12.93;82.98;99555.37;109383;1256;58787;-68
2023/07/19 01:39:01;;;;;;;9.20;2.20;;;;;;;12.98;82.73;99556.89;109272;1254;72475;-67
2023/07/19 01:41:56;;;;;;;7.70;2.50;;;;;;;13.04;82.39;99553.70;109268;1254;66787;-69
2023/07/19 01:44:43;;;;;;;7.10;2.30;;;;;;;13.07;82.28;99553.14;109299;1254;72552;-71
2023/07/19 01:47:29;;;;;;;8.50;2.00;;;;;;;13.12;81.82;99547.21;109461;1254;58040;-72
2023/07/19 01:50:16;;;;;;;6.10;1.90;;;;;;;13.16;81.47;99543.39;109206;1254;60181;-73
2023/07/19 01:53:03;;;;;;;7.50;2.00;;;;;;;13.20;81.36;99540.86;109289;1254;72651;-69
2023/07/19 01:55:49;;;;;;;6.70;2.00;;;;;;;13.23;81.18;99542.91;109351;1254;67588;-71
2023/07/19 01:58:35;;;;;;;6.90;2.00;;;;;;;13.25;81.20;99537.55;109326;1254;71172;-69
2023/07/19 02:01:22;;;;;;;7.80;2.10;;;;;;;13.28;81.16;99537.09;109412;1254;59316;-70
2023/07/19 02:04:09;;;;;;;9.60;2.50;;;;;;;13.31;80.86;99539.27;109462;1255;61256;-66
2023/07/19 02:07:10;;;;;;;7.90;2.20;;;;;;;13.31;80.88;99538.09;109321;1254;72136;-67
2023/07/19 02:10:20;;;;;;;6.10;2.20;;;;;;;13.30;80.71;99537.25;109092;1254;70111;-66
2023/07/19 02:13:07;;;;;;;5.80;2.00;;;;;;;13.30;80.69;99532.07;109342;1254;73923;-70
2023/07/19 02:15:54;;;;;;;6.60;2.10;;;;;;;13.33;80.64;99532.86;109222;1256;59345;-67
2023/07/19 02:18:41;;;;;;;6.60;2.00;;;;;;;13.37;80.29;99527.87;109154;1253;61133;-71
2023/07/19 02:21:27;;;;;;;7.10;2.00;;;;;;;13.40;80.15;99524.96;109459;1253;72869;-68
2023/07/19 02:24:15;;;;;;;7.00;2.00;;;;;;;13.43;80.03;99524.68;109228;1254;68911;-70
2023/07/19 02:27:01;;;;;;;8.10;2.00;;;;;;;13.45;79.90;99526.01;109250;1258;72730;-70
2023/07/19 02:29:48;;;;;;;8.60;2.20;;;;;;;13.48;79.77;99525.36;109424;1253;59487;-65
2023/07/19 02:32:35;;;;;;;7.70;2.00;;;;;;;13.51;79.78;99526.58;109488;1253;60426;-69
2023/07/19 02:35:23;;;;;;;6.70;2.10;;;;;;;13.54;79.81;99522.30;109437;1253;72116;-67
2023/07/19 02:38:10;;;;;;;9.00;1.80;;;;;;;13.58;79.79;99515.91;109498;1254;66425;-66
2023/07/19 02:40:59;;;;;;;7.90;2.00;;;;;;;13.58;80.00;99510.53;109368;1254;71694;-65
2023/07/19 02:43:45;;;;;;;7.50;2.40;;;;;;;13.57;80.22;99506.71;109279;1254;57975;-70
2023/07/19 02:46:32;;;;;;;7.30;2.10;;;;;;;13.55;80.35;99507.45;109418;1254;61061;-68
2023/07/19 02:49:18;;;;;;;7.70;2.30;;;;;;;13.51;80.33;99509.57;109342;1254;71973;-66
2023/07/19 02:52:06;;;;;;;8.00;2.20;;;;;;;13.49;80.43;99506.77;109480;1254;67880;-65
2023/07/19 02:54:53;;;;;;;6.70;2.10;;;;;;;13.46;80.73;99512.41;109332;1254;71793;-65
2023/07/19 02:57:39;;;;;;;10.60;2.70;;;;;;;13.40;81.01;99510.45;109430;1254;58171;-67
2023/07/19 03:00:26;;;;;;;8.10;1.90;;;;;;;13.37;81.16;99512.59;109369;1254;58855;-67
2023/07/19 03:03:13;;;;;;;6.80;1.90;;;;;;;13.32;81.51;99509.61;109404;1254;72272;-68
2023/07/19 03:06:02;;;;;;;7.20;2.30;;;;;;;13.28;81.65;99503.05;109460;1254;68274;-67
2023/07/19 03:08:48;;;;;;;8.70;2.40;;;;;;;13.24;81.86;99508.95;109357;1254;71059;-65
2023/07/19 03:11:35;;;;;;;8.30;2.00;;;;;;;13.23;82.21;99507.30;109450;1254;56889;-65
2023/07/19 03:14:22;;;;;;;6.30;2.20;;;;;;;13.22;82.21;99503.98;109321;1254;59027;-66
2023/07/19 03:17:10;;;;;;;8.10;2.20;;;;;;;13.23;82.63;99506.07;109042;1254;72132;-66
2023/07/19 03:19:57;;;;;;;5.90;2.20;;;;;;;13.26;82.73;99505.36;109221;1254;66986;-66
2023/07/19 03:22:47;;;;;;;9.10;2.30;;;;;;;13.33;82.60;99502.83;109291;1254;72883;-67
2023/07/19 03:25:34;;;;;;;8.00;2.20;;;;;;;13.40;82.32;99499.10;109205;1254;59386;-72
2023/07/19 03:28:20;;;;;;;8.60;2.10;;;;;;;13.49;81.92;99500.76;109412;1254;59523;-65
2023/07/19 03:31:11;;;;;;;8.20;2.10;;;;;;;13.58;81.68;99496.20;109338;1254;72308;-64
2023/07/19 03:34:01;;;;;;;6.70;1.90;;;;;;;13.67;81.28;99496.41;109265;1254;66335;-67
2023/07/19 03:36:48;;;;;;;8.60;2.00;;;;;;;13.75;81.01;99498.69;109274;1254;71356;-63
2023/07/19 03:39:35;;;;;;;7.80;2.10;;;;;;;13.85;80.63;99499.77;109246;1254;59978;-66
2023/07/19 03:42:22;;;;;;;7.10;2.00;;;;;;;13.96;80.29;99503.15;109288;1254;58796;-68
2023/07/19 03:45:09;;;;;;;6.80;2.10;;;;;;;14.08;80.01;99503.34;109364;1255;72424;-64
2023/07/19 03:47:56;;;;;;;6.80;2.10;;;;;;;14.20;79.32;99497.20;109249;1254;67913;-67
2023/07/19 03:50:42;;;;;;;8.00;2.10;;;;;;;14.27;79.26;99496.98;109338;1254;71688;-67
2023/07/19 03:53:29;;;;;;;7.00;1.80;;;;;;;14.35;78.92;99497.27;109212;1254;59455;-67
2023/07/19 03:56:15;;;;;;;7.00;2.00;;;;;;;14.43;78.87;99498.05;109132;1256;60386;-68
2023/07/19 03:59:02;;;;;;;8.80;2.20;;;;;;;14.51;78.49;99503.53;109201;1254;70608;-70
2023/07/19 04:01:49;;;;;;;7.60;1.90;;;;;;;14.57;78.38;99499.08;109315;1254;68738;-69
2023/07/19 04:04:35;;;;;;;7.80;2.20;;;;;;;14.64;78.07;99500.75;109355;1254;73197;-71
2023/07/19 04:07:21;;;;;;;7.30;2.00;;;;;;;14.68;77.71;99503.62;109249;1254;57816;-70
2023/07/19 04:10:10;;;;;;;6.70;2.10;;;;;;;14.71;77.25;99503.77;109286;1255;59084;-72
2023/07/19 04:12:58;;;;;;;7.40;1.90;;;;;;;14.76;77.13;99502.19;109221;1254;72089;-71
2023/07/19 04:15:58;;;;;;;8.40;1.90;;;;;;;14.80;76.60;99499.85;109182;1255;68097;-70
2023/07/19 04:19:03;;;;;;;6.30;1.50;;;;;;;14.82;76.33;99502.62;109155;1254;71417;-70
2023/07/19 04:21:50;;;;;;;7.00;2.10;;;;;;;14.84;76.33;99505.52;109276;1254;56961;-73
2023/07/19 04:24:37;;;;;;;7.90;1.90;;;;;;;14.84;76.58;99499.95;109200;1255;59448;-72
2023/07/19 04:27:25;;;;;;;6.70;1.80;;;;;;;14.85;77.04;99503.04;109205;1254;71202;-71
2023/07/19 04:30:13;;;;;;;6.90;2.00;;;;;;;14.87;76.37;99505.38;109329;1254;66402;-71
2023/07/19 04:33:01;;;;;;;7.50;2.00;;;;;;;14.88;76.56;99501.98;109435;1254;73343;-73
2023/07/19 04:35:48;;;;;;;6.50;1.80;;;;;;;14.90;76.33;99507.14;109171;1256;57759;-72
2023/07/19 04:38:35;;;;;;;5.90;1.90;;;;;;;14.91;76.59;99504.06;109155;1256;60450;-75
2023/07/19 04:41:21;;;;;;;8.20;1.90;;;;;;;14.93;76.46;99499.38;109241;1256;69877;-74
2023/07/19 04:44:09;;;;;;;7.50;2.20;;;;;;;14.98;76.89;99501.30;109113;1256;67926;-75
2023/07/19 04:46:58;;;;;;;8.40;1.90;;;;;;;15.04;77.09;99499.33;109125;1256;71526;-75
2023/07/19 04:49:49;;;;;;;6.80;2.00;;;;;;;15.08;76.60;99496.39;109123;1256;58105;-75
2023/07/19 04:52:37;;;;;;;9.00;1.90;;;;;;;15.13;76.74;99494.59;109151;1256;59372;-77
2023/07/19 04:55:25;;;;;;;6.90;2.00;;;;;;;15.19;76.81;99492.04;109103;1256;72868;-75
2023/07/19 04:58:14;;;;;;;7.60;2.30;;;;;;;15.22;76.50;99488.21;109178;1256;66920;-78
2023/07/19 05:01:05;;;;;;;5.50;1.70;;;;;;;15.25;76.74;99484.61;109098;1256;72494;-76
2023/07/19 05:03:54;;;;;;;6.30;1.80;;;;;;;15.30;76.73;99490.58;109111;1256;57965;-75
2023/07/19 05:06:42;;;;;;;6.40;1.90;;;;;;;15.35;76.77;99489.79;109346;1254;59202;-79
2023/07/19 05:09:30;;;;;;;7.30;2.00;;;;;;;15.39;76.55;99485.18;109227;1254;71028;-71
2023/07/19 05:12:17;;;;;;;7.20;2.00;;;;;;;15.46;76.41;99486.60;109319;1256;66582;-75
2023/07/19 05:15:05;;;;;;;6.00;1.70;;;;;;;15.55;76.30;99480.50;109259;1255;71540;-72
2023/07/19 05:17:52;;;;;;;6.40;1.90;;;;;;;15.65;75.91;99481.73;109437;1254;57842;-71
2023/07/19 05:20:41;;;;;;;8.70;2.00;;;;;;;15.72;75.74;99485.05;109446;1253;59280;-73
2023/07/19 05:23:36;;;;;;;10.20;2.40;;;;;;;15.77;75.64;99486.64;109372;1254;72446;-70
2023/07/19 05:26:24;;;;;;;7.50;2.00;;;;;;;15.78;75.50;99487.41;109281;1254;66660;-67
2023/07/19 05:29:10;;;;;;;6.40;1.90;;;;;;;15.78;75.76;99487.33;109416;1254;72268;-67
2023/07/19 05:31:57;;;;;;;6.00;1.70;;;;;;;15.75;76.19;99485.59;109315;1253;57879;-68
2023/07/19 05:34:43;;;;;;;6.90;2.00;;;;;;;15.74;76.59;99480.70;109206;1253;60438;-69
2023/07/19 05:37:30;;;;;;;5.80;1.80;;;;;;;15.72;77.11;99479.17;109162;1255;72052;-67
2023/07/19 05:40:18;;;;;;;6.00;1.80;;;;;;;15.70;77.37;99476.66;109219;1253;67879;-72
2023/07/19 05:43:04;;;;;;;7.00;1.90;;;;;;;15.71;78.02;99478.91;109288;1253;71204;-68
2023/07/19 05:45:50;;;;;;;7.20;1.80;;;;;;;15.76;78.07;99473.35;109224;1253;58046;-71
2023/07/19 05:48:37;;;;;;;5.30;1.70;;;;;;;15.84;78.17;99476.46;109458;1253;58866;-70
2023/07/19 05:51:24;;;;;;;7.20;1.80;;;;;;;15.91;78.05;99474.45;109193;1256;70735;-68
2023/07/19 05:54:10;;;;;;;6.30;1.60;;;;;;;15.97;77.80;99472.77;109212;1256;68466;-69
2023/07/19 05:56:58;;;;;;;8.00;1.70;;;;;;;16.07;77.44;99468.80;109387;1254;72602;-69
2023/07/19 05:59:44;;;;;;;6.80;1.50;;;;;;;16.23;76.99;99471.47;109263;1254;59383;-70
2023/07/19 06:02:31;;;;;;;18.10;8.20;;;;;;;16.39;76.32;99471.91;109277;1254;58684;-70
2023/07/19 06:05:38;;;;;;;7.90;1.90;;;;;;;16.55;76.17;99469.91;109365;1256;73274;-69
2023/07/19 06:08:25;;;;;;;6.90;1.80;;;;;;;16.72;75.40;99465.16;109392;1254;67888;-69
2023/07/19 06:11:15;;;;;;;6.20;1.80;;;;;;;17.00;74.72;99466.08;109203;1254;72630;-71
2023/07/19 06:14:03;;;;;;;8.30;1.60;;;;;;;17.28;72.78;99463.80;109169;1254;57970;-68
2023/07/19 06:16:50;;;;;;;6.20;1.60;;;;;;;17.43;72.19;99458.73;109293;1254;60168;-70
2023/07/19 06:19:37;;;;;;;5.50;1.50;;;;;;;17.57;71.70;99455.14;109330;1254;72124;-70
2023/07/19 06:22:25;;;;;;;6.00;2.00;;;;;;;17.72;71.25;99449.40;109321;1254;67743;-67
2023/07/19 06:25:12;;;;;;;5.50;1.50;;;;;;;17.93;70.82;99449.82;109268;1254;73549;-70
2023/07/19 06:27:59;;;;;;;5.90;1.30;;;;;;;18.11;69.73;99450.02;109369;1254;56919;-69
2023/07/19 06:30:46;;;;;;;6.20;1.50;;;;;;;18.22;69.30;99448.86;109312;1255;59102;-71
2023/07/19 06:33:32;;;;;;;6.00;1.60;;;;;;;18.21;68.87;99443.27;109336;1254;70978;-71
2023/07/19 06:36:19;;;;;;;7.10;1.60;;;;;;;18.25;68.92;99442.58;109249;1254;68869;-71
2023/07/19 06:39:20;;;;;;;6.20;1.70;;;;;;;18.24;68.68;99443.52;109088;1255;246955;-70
2023/07/19 06:42:08;;;;;;;6.70;1.60;;;;;;;18.25;68.71;99442.29;109356;1254;57827;-75
2023/07/19 06:44:56;;;;;;;6.20;1.30;;;;;;;18.24;68.59;99443.88;109433;1255;60178;-76
2023/07/19 06:47:43;;;;;;;6.80;1.80;;;;;;;18.23;68.41;99443.45;109396;1254;72051;-78
2023/07/19 06:50:30;;;;;;;6.90;1.70;;;;;;;18.24;68.61;99444.71;109583;1254;66424;-77
2023/07/19 06:53:17;;;;;;;7.30;1.70;;;;;;;18.26;68.73;99447.52;109544;1254;73725;-77
2023/07/19 06:56:05;;;;;;;6.30;1.70;;;;;;;18.29;68.64;99445.91;109290;1254;58135;-74
2023/07/19 06:58:52;;;;;;;8.20;1.40;;;;;;;18.32;68.57;99443.80;109265;1257;60892;-76
2023/07/19 07:01:38;;;;;;;8.90;1.70;;;;;;;18.32;68.51;99448.36;109332;1254;71983;-76
2023/07/19 07:04:25;;;;;;;6.70;1.90;;;;;;;18.30;68.23;99450.23;109208;1256;67935;-79
2023/07/19 07:07:15;;;;;;;6.70;1.40;;;;;;;18.28;68.51;99451.08;109052;1256;73040;-76
2023/07/19 07:10:05;;;;;;;7.00;1.70;;;;;;;18.21;68.51;99451.84;109131;1256;57678;-77
2023/07/19 07:12:51;;;;;;;8.10;1.40;;;;;;;18.14;68.75;99445.76;109179;1256;59109;-77
2023/07/19 07:15:38;;;;;;;7.30;1.50;;;;;;;18.04;68.81;99445.15;109017;1256;72294;-78
2023/07/19 07:18:25;;;;;;;6.30;1.80;;;;;;;17.96;69.33;99446.94;109134;1256;68044;-75
2023/07/19 07:21:15;;;;;;;6.30;1.60;;;;;;;17.93;69.30;99444.98;109195;1256;72543;-77
2023/07/19 07:24:01;;;;;;;7.50;1.60;;;;;;;17.91;69.44;99450.27;109110;1256;57800;-75
2023/07/19 07:26:48;;;;;;;7.30;1.50;;;;;;;17.86;69.87;99448.08;109171;1256;60234;-76
2023/07/19 07:29:36;;;;;;;6.40;1.70;;;;;;;17.79;70.02;99454.52;109118;1256;72078;-76
2023/07/19 07:32:23;;;;;;;6.80;1.80;;;;;;;17.69;70.49;99454.34;109143;1256;66300;-77
2023/07/19 07:35:11;;;;;;;6.50;1.40;;;;;;;17.69;70.85;99451.38;109316;1254;73618;-72
2023/07/19 07:37:58;;;;;;;7.70;1.80;;;;;;;17.73;71.18;99452.23;109417;1254;56902;-76
2023/07/19 07:40:45;;;;;;;6.20;1.70;;;;;;;17.74;71.43;99450.92;109358;1254;60120;-79
2023/07/19 07:43:32;;;;;;;6.60;1.60;;;;;;;17.73;71.68;99453.10;109274;1257;71972;-77
2023/07/19 07:46:18;;;;;;;5.60;1.60;;;;;;;17.72;72.18;99449.20;109422;1256;67895;-79
2023/07/19 07:49:07;;;;;;;7.40;1.90;;;;;;;17.63;72.49;99451.52;109258;1254;71439;-76
2023/07/19 07:51:54;;;;;;;7.10;1.90;;;;;;;17.55;73.12;99449.23;109299;1254;59499;-72
2023/07/19 07:54:40;;;;;;;5.40;1.70;;;;;;;17.50;73.23;99444.77;109325;1254;58766;-75
2023/07/19 07:57:30;;;;;;;6.80;1.60;;;;;;;17.44;73.45;99453.20;109406;1254;71982;-74
2023/07/19 08:00:18;;;;;;;5.90;1.60;;;;;;;17.41;73.83;99450.55;109314;1254;66526;-71
2023/07/19 08:03:04;;;;;;;6.40;1.50;;;;;;;17.43;74.39;99450.80;109361;1254;72468;-72
2023/07/19 08:05:52;;;;;;;7.20;1.80;;;;;;;17.47;74.45;99447.98;109204;1254;56976;-73
2023/07/19 08:08:39;;;;;;;6.50;1.60;;;;;;;17.53;74.05;99447.17;109342;1254;59103;-73
2023/07/19 08:11:26;;;;;;;6.90;1.80;;;;;;;17.60;74.13;99442.86;109449;1255;73295;-74
2023/07/19 08:14:12;;;;;;;6.70;1.60;;;;;;;17.65;73.93;99444.48;109253;1254;66616;-73
2023/07/19 08:16:59;;;;;;;7.00;2.00;;;;;;;17.68;73.93;99444.79;109325;1259;72104;-71
2023/07/19 08:19:48;;;;;;;5.60;1.50;;;;;;;17.65;73.30;99442.49;109208;1255;57739;-72
2023/07/19 08:22:37;;;;;;;5.70;1.80;;;;;;;17.54;73.26;99440.13;109324;1257;58768;-72
2023/07/19 08:25:24;;;;;;;5.60;1.50;;;;;;;17.51;73.45;99442.17;109200;1254;71144;-70
2023/07/19 08:28:13;;;;;;;7.00;1.70;;;;;;;17.47;73.11;99440.28;109330;1254;66472;-73
2023/07/19 08:31:00;;;;;;;6.80;1.70;;;;;;;17.44;73.47;99436.20;109302;1254;71558;-73
2023/07/19 08:33:47;;;;;;;7.80;1.80;;;;;;;17.45;73.70;99436.80;109117;1259;58362;-72
2023/07/19 08:36:33;;;;;;;5.70;1.50;;;;;;;17.46;73.98;99433.93;109317;1254;58905;-71
2023/07/19 08:39:20;;;;;;;6.40;1.70;;;;;;;17.42;74.25;99438.57;109428;1254;70788;-72
2023/07/19 08:42:06;;;;;;;6.10;1.80;;;;;;;17.41;74.53;99443.28;109267;1254;66694;-72
2023/07/19 08:44:54;;;;;;;6.80;1.50;;;;;;;17.41;74.35;99440.96;109360;1254;71279;-71
2023/07/19 08:47:43;;;;;;;6.40;1.50;;;;;;;17.40;74.42;99444.36;109262;1254;57003;-72
2023/07/19 08:50:36;;;;;;;6.90;1.80;;;;;;;17.38;74.63;99441.36;109352;1254;58916;-75
2023/07/19 08:53:25;;;;;;;6.70;1.90;;;;;;;17.39;74.77;99442.16;109206;1254;70976;-70
2023/07/19 08:56:14;;;;;;;5.40;1.40;;;;;;;17.44;74.52;99441.89;109257;1254;66493;-72
2023/07/19 08:59:00;;;;;;;6.20;1.60;;;;;;;17.50;74.15;99436.53;109255;1254;72766;-73
2023/07/19 09:01:47;;;;;;;6.20;1.60;;;;;;;17.60;74.21;99433.56;109319;1254;57049;-71
2023/07/19 09:04:36;;;;;;;6.80;1.70;;;;;;;17.77;74.30;99431.47;109465;1254;60100;-71
2023/07/19 09:07:23;;;;;;;6.10;1.80;;;;;;;17.87;73.91;99427.20;109269;1254;72102;-71
2023/07/19 09:10:10;;;;;;;5.80;1.70;;;;;;;17.98;73.34;99431.03;109361;1254;68998;-70
2023/07/19 09:12:57;;;;;;;7.00;1.80;;;;;;;18.10;73.12;99433.19;109345;1255;72436;-71
2023/07/19 09:15:47;;;;;;;7.20;1.80;;;;;;;18.17;72.39;99433.39;109430;1254;58128;-73
2023/07/19 09:18:37;;;;;;;6.60;1.80;;;;;;;18.28;72.61;99432.71;109254;1254;60196;-74
2023/07/19 09:21:42;;;;;;;6.70;1.70;;;;;;;18.44;72.08;99429.55;109286;1254;72070;-71
2023/07/19 09:24:28;;;;;;;8.90;1.90;;;;;;;18.61;71.97;99430.97;109474;1254;67536;-70
2023/07/19 09:27:25;;;;;;;8.60;1.60;;;;;;;18.82;71.73;99428.46;109402;1254;72606;-72
2023/07/19 09:30:13;;;;;;;5.60;1.60;;;;;;;19.07;70.79;99424.98;109383;1254;56959;-69
2023/07/19 09:33:01;;;;;;;5.40;1.40;;;;;;;19.23;69.77;99425.52;109231;1255;58766;-73
2023/07/19 09:35:54;;;;;;;6.50;1.60;;;;;;;19.23;69.39;99421.00;109341;1254;71820;-71
2023/07/19 09:38:42;;;;;;;8.00;2.00;;;;;;;19.27;69.13;99423.94;109238;1254;69034;-74
2023/07/19 09:41:29;;;;;;;8.10;1.60;;;;;;;19.31;68.65;99423.27;109075;1254;71376;-75
2023/07/19 09:44:17;;;;;;;7.50;1.80;;;;;;;19.37;68.73;99418.73;109182;1254;57013;-71
2023/07/19 09:47:08;;;;;;;6.30;1.50;;;;;;;19.46;67.88;99413.04;109461;1254;58818;-74
2023/07/19 09:50:13;;;;;;;6.40;1.80;;;;;;;19.43;67.09;99413.01;109341;1254;70719;-71
2023/07/19 09:53:01;;;;;;;5.50;1.60;;;;;;;19.35;66.56;99409.34;109329;1254;66306;-73
2023/07/19 09:55:50;;;;;;;6.00;1.40;;;;;;;19.25;66.93;99406.98;109173;1259;70177;-72
2023/07/19 09:58:36;;;;;;;5.60;1.50;;;;;;;19.25;67.35;99399.20;109331;1254;56916;-70
2023/07/19 10:01:25;;;;;;;5.20;1.50;;;;;;;19.39;67.54;99402.02;109369;1254;60505;-71
2023/07/19 10:04:38;;;;;;;6.30;1.60;;;;;;;19.57;66.47;99398.41;109360;1254;71234;-74
2023/07/19 10:07:26;;;;;;;6.20;1.90;;;;;;;19.68;66.65;99399.16;109141;1254;67792;-71
2023/07/19 10:10:39;;;;;;;7.80;1.90;;;;;;;19.75;66.20;99393.48;109291;1254;73631;-71
2023/07/19 10:13:58;;;;;;;6.80;1.40;;;;;;;19.71;65.35;99393.09;109401;1254;56951;-72
2023/07/19 10:16:48;;;;;;;7.10;1.80;;;;;;;19.62;65.71;99392.14;109355;1254;58872;-73
2023/07/19 10:19:35;;;;;;;6.10;1.60;;;;;;;19.58;66.16;99393.64;109247;1254;70741;-71
2023/07/19 10:22:45;;;;;;;6.00;1.60;;;;;;;19.48;66.34;99390.98;109335;1254;67803;-72
2023/07/19 10:25:46;;;;;;;5.20;1.50;;;;;;;19.24;66.71;99391.30;109294;1254;72869;-73
2023/07/19 10:28:33;;;;;;;6.80;1.40;;;;;;;18.98;67.34;99393.39;109337;1254;57510;-72
2023/07/19 10:31:20;;;;;;;5.20;1.70;;;;;;;18.75;68.30;99389.36;109200;1254;60389;-72
2023/07/19 10:34:15;;;;;;;6.00;1.70;;;;;;;18.60;69.22;99388.72;109228;1254;72049;-73
2023/07/19 10:37:06;;;;;;;8.40;1.90;;;;;;;18.46;69.63;99384.04;109268;1254;66586;-70
2023/07/19 10:39:54;;;;;;;6.30;1.70;;;;;;;18.33;70.13;99380.75;109267;1254;71893;-72
2023/07/19 10:42:43;;;;;;;6.70;1.80;;;;;;;18.19;70.72;99383.40;109391;1254;57840;-73
2023/07/19 10:45:30;;;;;;;7.30;1.80;;;;;;;18.08;71.57;99386.85;109271;1254;60035;-71
2023/07/19 10:48:16;;;;;;;5.70;1.80;;;;;;;17.96;72.42;99385.56;109196;1254;72210;-73
2023/07/19 10:51:10;;;;;;;6.60;1.50;;;;;;;17.83;72.95;99383.98;109433;1254;67403;-72
2023/07/19 10:53:58;;;;;;;6.30;1.60;;;;;;;17.70;72.86;99387.98;109159;1254;72577;-71
2023/07/19 10:56:49;;;;;;;6.80;1.80;;;;;;;17.60;73.83;99396.46;109375;1256;59638;-75
2023/07/19 10:59:36;;;;;;;5.70;1.80;;;;;;;17.50;74.09;99393.61;109300;1254;59100;-74
2023/07/19 11:02:24;;;;;;;6.50;1.90;;;;;;;17.45;74.53;99400.22;108974;1257;69971;-71
2023/07/19 11:05:11;;;;;;;7.20;1.80;;;;;;;17.36;75.58;99404.42;109120;1257;66861;-74
2023/07/19 11:07:59;;;;;;;5.10;1.70;;;;;;;17.27;76.00;99404.23;109028;1257;74376;-72
2023/07/19 11:10:47;;;;;;;5.80;1.70;;;;;;;17.27;76.41;99413.77;108840;1260;57007;-72
2023/07/19 11:13:34;;;;;;;6.20;1.70;;;;;;;17.22;75.40;99410.54;108806;1263;58830;-72
2023/07/19 11:16:21;;;;;;;5.90;1.60;;;;;;;17.14;74.18;99416.48;108901;1264;73054;-75
2023/07/19 11:19:08;;;;;;;5.20;1.50;;;;;;;17.04;73.27;99415.78;108717;1264;67871;-72
2023/07/19 11:21:55;;;;;;;5.80;1.40;;;;;;;16.90;72.61;99414.95;108811;1263;73605;-73
2023/07/19 11:24:42;;;;;;;5.30;1.60;;;;;;;16.75;73.98;99409.77;108834;1261;59482;-73
2023/07/19 11:27:34;;;;;;;5.00;1.30;;;;;;;16.62;74.10;99405.15;108883;1262;58748;-72
2023/07/19 11:30:23;;;;;;;5.60;1.40;;;;;;;16.55;74.81;99409.55;108832;1262;70652;-71
2023/07/19 11:33:11;;;;;;;5.40;1.60;;;;;;;16.46;76.02;99407.68;108991;1259;66614;-73
2023/07/19 11:35:57;;;;;;;5.50;1.60;;;;;;;16.41;76.37;99407.80;108913;1259;72618;-75
2023/07/19 11:38:49;;;;;;;8.20;1.60;;;;;;;16.33;77.21;99410.56;108966;1260;58321;-76
2023/07/19 11:41:35;;;;;;;5.70;1.30;;;;;;;16.28;77.46;99411.83;108933;1256;60168;-73
2023/07/19 11:44:22;;;;;;;7.30;1.90;;;;;;;16.17;77.21;99409.83;109166;1257;72314;-72
2023/07/19 11:47:11;;;;;;;6.30;1.50;;;;;;;16.03;77.27;99412.48;109195;1257;66526;-73
2023/07/19 11:49:58;;;;;;;5.80;1.20;;;;;;;15.86;77.62;99404.56;108948;1256;72730;-73
2023/07/19 11:53:00;;;;;;;5.90;1.60;;;;;;;15.72;77.84;99411.04;109018;1256;58078;-74
2023/07/19 11:55:47;;;;;;;6.30;1.70;;;;;;;15.63;78.60;99412.66;109151;1256;60080;-75
2023/07/19 11:58:34;;;;;;;6.20;1.70;;;;;;;15.55;78.93;99399.98;109103;1256;72735;-73
2023/07/19 12:01:33;;;;;;;6.20;1.80;;;;;;;15.48;79.38;99406.33;109139;1256;67613;-73
2023/07/19 12:04:19;;;;;;;5.90;1.50;;;;;;;15.43;80.36;99410.91;109180;1256;71337;-72
2023/07/19 12:07:06;;;;;;;6.50;1.50;;;;;;;15.40;81.18;99412.48;109129;1256;57727;-73
2023/07/19 12:09:55;;;;;;;5.70;1.50;;;;;;;15.40;81.68;99413.23;109156;1257;58889;-72
2023/07/19 12:12:41;;;;;;;7.20;1.70;;;;;;;15.43;81.83;99416.34;109113;1256;73380;-74
2023/07/19 12:15:28;;;;;;;6.20;1.90;;;;;;;15.46;82.16;99409.75;109064;1256;69113;-75
2023/07/19 12:18:15;;;;;;;5.30;1.60;;;;;;;15.54;82.50;99411.39;109170;1256;71302;-73
2023/07/19 12:21:02;;;;;;;7.40;1.80;;;;;;;15.62;83.06;99408.54;109122;1254;58986;-73
2023/07/19 12:23:48;;;;;;;6.20;2.10;;;;;;;15.72;82.99;99402.86;109428;1254;60206;-72
2023/07/19 12:26:38;;;;;;;6.90;2.00;;;;;;;15.89;83.38;99406.84;109203;1254;72068;-74
2023/07/19 12:29:25;;;;;;;6.80;2.10;;;;;;;16.16;83.72;99401.89;109446;1254;68237;-72
2023/07/19 12:32:11;;;;;;;6.30;1.60;;;;;;;16.45;82.49;99399.77;109406;1254;71522;-73
2023/07/19 12:34:58;;;;;;;6.20;1.60;;;;;;;16.74;81.55;99407.19;109401;1254;60308;-71
2023/07/19 12:37:45;;;;;;;5.80;1.70;;;;;;;16.96;81.02;99412.14;109330;1254;60082;-74
2023/07/19 12:40:33;;;;;;;6.60;1.80;;;;;;;17.07;80.60;99411.00;109256;1255;70662;-74
2023/07/19 12:43:20;;;;;;;6.90;2.00;;;;;;;17.18;80.06;99405.28;109214;1257;66622;-69
2023/07/19 12:46:06;;;;;;;7.30;1.60;;;;;;;17.34;79.97;99404.88;109209;1257;71124;-73
2023/07/19 12:48:53;;;;;;;6.30;1.80;;;;;;;17.37;78.66;99402.19;109037;1257;57463;-74
2023/07/19 12:51:40;;;;;;;6.20;1.90;;;;;;;17.29;78.80;99401.48;109055;1256;58831;-70
2023/07/19 12:54:27;;;;;;;6.10;1.80;;;;;;;17.26;79.11;99405.64;109022;1257;70799;-72
2023/07/19 12:57:13;;;;;;;6.80;2.30;;;;;;;17.27;79.39;99402.09;109033;1257;68001;-73
2023/07/19 13:00:04;;;;;;;5.60;1.70;;;;;;;17.27;78.81;99401.69;109065;1257;71419;-75
2023/07/19 13:02:52;;;;;;;5.90;1.80;;;;;;;17.28;79.03;99397.27;109021;1257;58392;-73
2023/07/19 13:05:39;;;;;;;6.60;1.80;;;;;;;17.28;79.19;99397.32;109098;1257;58888;-74
2023/07/19 13:08:27;;;;;;;6.50;1.90;;;;;;;17.27;78.81;99395.45;108993;1257;71160;-73